Time;durP1;ratioP1;P1;durP2;ratioP2;P2;SDS_P1;SDS_P2;PMS_P1;PMS_P2;Temp;Humidity;BMP_temperature;BMP_pressure;BME280_temperature;BME280_humidity;BME280_pressure;Samples;Min_cycle;Max_cycle;Signal;HPM_P1;HPM_P2
2021/07/20 00:01:11;;;;;;;7.07;3.38;;;19.20;83.80;;;;;;5129953;27;20235;-87
2021/07/20 00:03:37;;;;;;;7.70;3.92;;;19.10;84.30;;;;;;5116146;27;20382;-87
2021/07/20 00:06:03;;;;;;;7.55;3.67;;;19.10;84.10;;;;;;5117708;27;20039;-87
2021/07/20 00:08:29;;;;;;;9.50;4.28;;;19.10;84.50;;;;;;5136903;27;20031;-87
2021/07/20 00:10:57;;;;;;;8.60;4.25;;;19.10;84.40;;;;;;5134138;27;20046;-87
2021/07/20 00:13:23;;;;;;;9.73;4.78;;;19.10;84.30;;;;;;5150565;27;20385;-85
2021/07/20 00:15:51;;;;;;;7.18;3.35;;;19.00;85.00;;;;;;5123926;27;20166;-87
2021/07/20 00:18:20;;;;;;;8.77;3.65;;;19.00;85.20;;;;;;5132475;27;20039;-88
2021/07/20 00:20:46;;;;;;;8.98;4.22;;;19.00;84.60;;;;;;5133054;27;20039;-88
2021/07/20 00:23:13;;;;;;;8.25;4.00;;;19.00;85.30;;;;;;5119214;27;20099;-86
2021/07/20 00:25:39;;;;;;;9.63;3.35;;;19.00;85.20;;;;;;5134503;27;20574;-87
2021/07/20 00:28:05;;;;;;;6.28;3.88;;;19.00;85.30;;;;;;5121653;27;20047;-86
2021/07/20 00:30:30;;;;;;;6.78;3.83;;;19.00;85.10;;;;;;5119173;27;20088;-86
2021/07/20 00:32:57;;;;;;;6.57;3.90;;;19.00;85.00;;;;;;5134311;27;20035;-87
2021/07/20 00:35:22;;;;;;;9.35;4.10;;;18.90;85.50;;;;;;5127509;27;20062;-87
2021/07/20 00:37:48;;;;;;;6.03;4.05;;;18.90;86.00;;;;;;5116203;27;20410;-87
2021/07/20 00:40:17;;;;;;;7.78;4.65;;;18.80;85.80;;;;;;5119374;27;20070;-87
2021/07/20 00:42:43;;;;;;;6.35;4.03;;;18.80;86.00;;;;;;5117309;27;20043;-87
2021/07/20 00:45:13;;;;;;;8.80;4.18;;;18.80;86.70;;;;;;5119551;27;20274;-87
2021/07/20 00:47:39;;;;;;;13.75;4.60;;;18.80;86.70;;;;;;5119101;27;20134;-86
2021/07/20 00:50:08;;;;;;;6.57;3.83;;;18.80;86.40;;;;;;5137649;27;20054;-87
2021/07/20 00:52:34;;;;;;;6.25;3.75;;;18.80;86.30;;;;;;5137130;27;20035;-87
2021/07/20 00:55:00;;;;;;;9.65;4.60;;;18.80;86.50;;;;;;5125513;27;20067;-86
2021/07/20 00:57:26;;;;;;;6.57;4.20;;;18.70;87.10;;;;;;5120641;28;20097;-88
2021/07/20 00:59:53;;;;;;;9.10;3.85;;;18.70;87.10;;;;;;5119835;27;20053;-88
2021/07/20 01:02:19;;;;;;;7.30;4.40;;;18.70;87.10;;;;;;5127941;27;20040;-88
2021/07/20 01:04:45;;;;;;;9.27;4.10;;;18.60;87.00;;;;;;5131828;27;20039;-88
2021/07/20 01:07:11;;;;;;;6.90;4.93;;;18.70;87.20;;;;;;5136420;27;20122;-87
2021/07/20 01:09:37;;;;;;;7.70;4.82;;;18.70;87.60;;;;;;5136104;27;20071;-87
2021/07/20 01:12:04;;;;;;;9.23;4.43;;;18.70;87.90;;;;;;5118915;27;20043;-87
2021/07/20 01:14:30;;;;;;;11.27;4.63;;;18.60;88.10;;;;;;5127435;27;20035;-87
2021/07/20 01:16:56;;;;;;;9.45;5.13;;;18.60;88.10;;;;;;5145555;27;20050;-88
2021/07/20 01:19:28;;;;;;;10.40;4.35;;;18.60;88.60;;;;;;5124640;28;20114;-88
2021/07/20 01:21:57;;;;;;;10.30;4.95;;;18.60;88.60;;;;;;5119890;27;20039;-87
2021/07/20 01:24:23;;;;;;;7.53;4.95;;;18.50;88.90;;;;;;5129449;28;20410;-87
2021/07/20 01:26:49;;;;;;;7.55;4.25;;;18.50;88.70;;;;;;5143919;28;20105;-87
2021/07/20 01:29:15;;;;;;;5.88;4.25;;;18.50;88.90;;;;;;5121631;28;20477;-88
2021/07/20 01:31:43;;;;;;;8.75;4.15;;;18.50;89.60;;;;;;5118783;28;20103;-87
2021/07/20 01:34:13;;;;;;;9.40;4.25;;;18.40;89.80;;;;;;5130657;28;20034;-86
2021/07/20 01:36:40;;;;;;;8.52;4.47;;;18.40;89.70;;;;;;5113719;28;20091;-87
2021/07/20 01:39:10;;;;;;;7.15;4.45;;;18.40;90.20;;;;;;5117035;28;20035;-88
2021/07/20 01:41:36;;;;;;;8.02;4.35;;;18.40;90.00;;;;;;5132708;28;20035;-87
2021/07/20 01:44:06;;;;;;;10.55;5.47;;;18.40;90.30;;;;;;5130867;28;20047;-87
2021/07/20 01:46:33;;;;;;;7.50;3.63;;;18.40;90.30;;;;;;5121351;28;20042;-87
2021/07/20 01:49:01;;;;;;;7.15;4.85;;;18.30;90.10;;;;;;5115636;28;20058;-87
2021/07/20 01:51:27;;;;;;;7.10;4.10;;;18.40;90.00;;;;;;5119005;28;20038;-87
2021/07/20 01:53:54;;;;;;;10.23;5.07;;;18.40;90.10;;;;;;5125650;28;20045;-86
2021/07/20 01:56:20;;;;;;;7.70;4.57;;;18.40;90.20;;;;;;5132021;28;20429;-86
2021/07/20 01:58:47;;;;;;;7.63;4.85;;;18.30;90.10;;;;;;5118079;28;20039;-87
2021/07/20 02:01:32;;;;;;;7.55;4.35;;;18.30;90.40;;;;;;5118670;28;20100;-86
2021/07/20 02:09:30;;;;;;;8.80;4.78;;;18.20;90.50;;;;;;5133778;28;20046;-85
2021/07/20 02:11:58;;;;;;;9.85;4.18;;;18.20;90.50;;;;;;5115915;28;20046;-88
2021/07/20 02:14:31;;;;;;;9.00;5.13;;;18.20;90.80;;;;;;5133675;28;20047;-87
2021/07/20 02:17:00;;;;;;;10.00;5.97;;;18.10;90.80;;;;;;5133905;28;20045;-86
2021/07/20 02:19:28;;;;;;;7.05;4.32;;;18.10;90.90;;;;;;5118481;28;20043;-88
2021/07/20 02:21:57;;;;;;;11.18;5.40;;;18.10;91.00;;;;;;5128328;28;20083;-86
2021/07/20 02:24:30;;;;;;;6.93;4.97;;;18.00;91.00;;;;;;5116164;27;20078;-87
2021/07/20 02:26:57;;;;;;;;;;;18.00;91.20;;;;;;5132269;27;20459;-87
2021/07/20 02:29:24;;;;;;;8.52;4.60;;;17.90;91.00;;;;;;5121659;27;20043;-87
2021/07/20 02:31:53;;;;;;;10.80;5.60;;;17.90;91.20;;;;;;5122392;27;20035;-87
2021/07/20 02:34:20;;;;;;;14.05;5.65;;;17.90;91.10;;;;;;5126052;27;20109;-86
2021/07/20 02:36:46;;;;;;;11.05;5.70;;;17.90;91.40;;;;;;5136188;27;20067;-87
2021/07/20 02:39:12;;;;;;;9.95;4.97;;;17.90;91.60;;;;;;5122981;27;20078;-86
2021/07/20 02:41:39;;;;;;;6.78;4.25;;;17.80;91.30;;;;;;5122367;27;20091;-88
2021/07/20 02:44:09;;;;;;;8.90;5.80;;;17.80;91.60;;;;;;5140213;27;20035;-86
2021/07/20 02:46:35;;;;;;;13.80;5.25;;;17.80;91.70;;;;;;5130876;27;20429;-87
2021/07/20 02:49:01;;;;;;;10.48;5.80;;;17.80;91.50;;;;;;5120949;27;20039;-88
2021/07/20 02:51:27;;;;;;;12.90;5.32;;;17.70;91.60;;;;;;5121513;27;20035;-88
2021/07/20 02:53:58;;;;;;;9.75;4.57;;;17.70;91.70;;;;;;5115520;27;20035;-88
2021/07/20 02:56:24;;;;;;;8.10;5.22;;;17.70;91.70;;;;;;5122894;27;20091;-86
2021/07/20 02:58:52;;;;;;;9.20;5.75;;;17.70;91.80;;;;;;5137734;27;20398;-87
2021/07/20 03:01:19;;;;;;;11.18;5.07;;;17.70;91.80;;;;;;5137487;27;20042;-88
2021/07/20 03:03:45;;;;;;;10.55;5.10;;;17.70;91.70;;;;;;5135536;27;20407;-85
2021/07/20 03:06:12;;;;;;;8.18;5.65;;;17.70;91.80;;;;;;5119369;27;20035;-85
2021/07/20 03:08:39;;;;;;;8.45;4.57;;;17.70;91.90;;;;;;5129764;27;20088;-85
2021/07/20 03:11:08;;;;;;;8.45;5.30;;;17.70;91.80;;;;;;5133630;27;20061;-86
2021/07/20 03:13:39;;;;;;;10.32;5.82;;;17.70;91.70;;;;;;5125659;27;20031;-88
2021/07/20 03:16:08;;;;;;;11.75;5.70;;;17.70;91.80;;;;;;5135481;27;20398;-87
2021/07/20 03:18:35;;;;;;;10.88;5.15;;;17.70;91.70;;;;;;5124415;27;20055;-87
2021/07/20 03:21:02;;;;;;;9.68;5.30;;;17.60;92.10;;;;;;5118031;28;20407;-86
2021/07/20 03:23:28;;;;;;;11.43;5.70;;;17.60;91.90;;;;;;5121690;27;20091;-86
2021/07/20 03:25:56;;;;;;;9.18;5.13;;;17.60;92.00;;;;;;5135487;27;20064;-86
2021/07/20 03:28:23;;;;;;;9.32;5.72;;;17.50;92.10;;;;;;5121628;27;20027;-86
2021/07/20 03:30:49;;;;;;;10.23;4.95;;;17.60;92.00;;;;;;5135133;27;20051;-86
2021/07/20 03:33:17;;;;;;;11.27;5.15;;;17.60;91.90;;;;;;5121620;27;20031;-86
2021/07/20 03:35:43;;;;;;;7.18;4.88;;;17.60;92.10;;;;;;5119554;27;20039;-86
2021/07/20 03:38:10;;;;;;;9.68;4.97;;;17.60;92.00;;;;;;5127681;27;20049;-87
2021/07/20 03:40:36;;;;;;;7.65;4.85;;;17.60;91.90;;;;;;5119852;27;20188;-87
2021/07/20 03:43:02;;;;;;;10.05;5.45;;;17.50;92.10;;;;;;5119416;27;20031;-86
2021/07/20 03:45:28;;;;;;;6.97;4.35;;;17.60;92.10;;;;;;5120965;27;20031;-86
2021/07/20 03:47:54;;;;;;;6.30;5.00;;;17.60;92.00;;;;;;5135948;27;20118;-87
2021/07/20 03:50:22;;;;;;;9.15;5.60;;;17.60;91.90;;;;;;5123844;27;20035;-87
2021/07/20 03:52:49;;;;;;;9.88;5.75;;;17.50;92.10;;;;;;5140322;27;20201;-86
2021/07/20 03:55:18;;;;;;;7.80;4.80;;;17.50;92.10;;;;;;5134433;27;20116;-86
2021/07/20 03:57:44;;;;;;;10.35;5.05;;;17.40;92.30;;;;;;5121277;27;20039;-87
2021/07/20 04:00:10;;;;;;;9.13;4.63;;;17.40;92.30;;;;;;5142417;27;20049;-86
2021/07/20 04:02:56;;;;;;;8.00;4.88;;;17.50;92.20;;;;;;5126747;27;20039;-88
2021/07/20 04:05:22;;;;;;;8.00;4.88;;;17.50;92.50;;;;;;5120433;28;20051;-87
2021/07/20 04:07:50;;;;;;;11.68;5.18;;;17.50;92.20;;;;;;5120255;27;20050;-87
2021/07/20 04:10:16;;;;;;;10.45;5.65;;;17.50;92.40;;;;;;5132260;27;20035;-87
2021/07/20 04:12:42;;;;;;;8.00;5.45;;;17.40;92.50;;;;;;5132500;27;20095;-87
2021/07/20 04:15:11;;;;;;;8.32;5.38;;;17.40;92.30;;;;;;5118832;27;20421;-89
2021/07/20 04:17:37;;;;;;;11.85;4.70;;;17.40;92.50;;;;;;5137264;27;20035;-87
2021/07/20 04:20:05;;;;;;;6.38;4.50;;;17.40;92.30;;;;;;5119924;27;20042;-87
2021/07/20 04:22:33;;;;;;;8.20;4.78;;;17.40;92.40;;;;;;5130091;28;20051;-86
2021/07/20 04:25:00;;;;;;;8.27;4.97;;;17.40;92.40;;;;;;5120422;27;20063;-88
2021/07/20 04:27:27;;;;;;;6.70;4.75;;;17.40;92.60;;;;;;5120674;27;20027;-88
2021/07/20 04:29:52;;;;;;;8.32;5.40;;;17.40;92.50;;;;;;5120196;27;20100;-88
2021/07/20 04:32:20;;;;;;;7.55;5.05;;;17.50;92.40;;;;;;5117479;28;20043;-87
2021/07/20 04:34:45;;;;;;;8.55;5.43;;;17.50;92.60;;;;;;5114759;27;20039;-86
2021/07/20 04:37:14;;;;;;;10.25;4.53;;;17.50;92.80;;;;;;5115208;28;20039;-87
2021/07/20 04:39:40;;;;;;;8.30;5.05;;;17.50;92.60;;;;;;5109033;27;20035;-87
2021/07/20 04:42:07;;;;;;;8.57;5.25;;;17.60;92.40;;;;;;5112151;27;20056;-88
2021/07/20 04:44:33;;;;;;;8.95;5.75;;;17.60;92.40;;;;;;5127649;27;20035;-86
2021/07/20 04:46:59;;;;;;;8.35;4.78;;;17.70;92.20;;;;;;5119688;27;20091;-89
2021/07/20 04:49:25;;;;;;;10.55;4.65;;;17.70;92.40;;;;;;5118549;27;20034;-88
2021/07/20 04:51:51;;;;;;;10.52;4.32;;;17.70;92.30;;;;;;5112860;27;20122;-88
2021/07/20 04:54:18;;;;;;;8.07;4.68;;;17.70;92.50;;;;;;5117636;27;20081;-88
2021/07/20 04:56:45;;;;;;;8.38;4.45;;;17.70;92.70;;;;;;5117989;27;20088;-85
2021/07/20 04:59:12;;;;;;;7.75;4.80;;;17.70;92.60;;;;;;5144056;27;20043;-88
2021/07/20 05:01:40;;;;;;;11.23;5.63;;;17.70;92.70;;;;;;5125094;27;20441;-86
2021/07/20 05:04:06;;;;;;;8.23;5.13;;;17.80;92.50;;;;;;5138687;27;20031;-87
2021/07/20 05:06:33;;;;;;;10.63;5.07;;;17.80;92.10;;;;;;5118561;27;20066;-86
2021/07/20 05:09:00;;;;;;;7.30;5.13;;;17.80;92.10;;;;;;5127074;27;20039;-88
2021/07/20 05:11:26;;;;;;;11.63;4.68;;;17.90;92.40;;;;;;5120439;27;20084;-87
2021/07/20 05:13:52;;;;;;;6.00;4.20;;;17.90;92.20;;;;;;5113150;28;20051;-87
2021/07/20 05:16:17;;;;;;;7.70;4.85;;;17.90;92.10;;;;;;5111657;28;20061;-89
2021/07/20 05:18:47;;;;;;;10.52;4.93;;;18.00;92.30;;;;;;5125367;27;20047;-89
2021/07/20 05:21:13;;;;;;;8.63;4.82;;;18.00;92.00;;;;;;5118523;27;20432;-88
2021/07/20 05:23:40;;;;;;;7.07;4.65;;;18.10;91.90;;;;;;5120006;28;20039;-88
2021/07/20 05:26:07;;;;;;;6.35;3.88;;;18.10;91.90;;;;;;5136543;27;20066;-87
2021/07/20 05:28:35;;;;;;;10.65;5.38;;;18.10;92.00;;;;;;5116766;28;20039;-86
2021/07/20 05:31:02;;;;;;;8.63;4.30;;;18.10;92.10;;;;;;5114485;28;20040;-87
2021/07/20 05:33:29;;;;;;;8.55;4.47;;;18.10;92.00;;;;;;5114162;28;20144;-87
2021/07/20 05:36:02;;;;;;;8.20;4.40;;;18.10;91.80;;;;;;5131309;28;20035;-87
2021/07/20 05:38:29;;;;;;;9.93;4.40;;;18.10;91.90;;;;;;5118026;28;20066;-86
2021/07/20 05:40:57;;;;;;;7.90;4.55;;;18.10;91.90;;;;;;5115749;28;20139;-87
2021/07/20 05:43:26;;;;;;;12.68;4.90;;;18.10;91.90;;;;;;5118222;28;20046;-87
2021/07/20 05:45:53;;;;;;;10.52;4.95;;;18.20;92.00;;;;;;5111027;28;20035;-85
2021/07/20 05:48:22;;;;;;;6.13;3.60;;;18.30;91.80;;;;;;5118605;28;20740;-88
2021/07/20 05:50:52;;;;;;;7.93;4.47;;;18.40;91.30;;;;;;5118202;28;20067;-86
2021/07/20 05:53:24;;;;;;;9.48;4.20;;;18.50;91.40;;;;;;5136921;28;20119;-87
2021/07/20 05:55:55;;;;;;;7.22;4.65;;;18.50;91.60;;;;;;5141853;28;20059;-87
2021/07/20 05:58:22;;;;;;;6.07;3.75;;;18.60;91.00;;;;;;5144941;27;20039;-89
2021/07/20 06:00:51;;;;;;;6.88;4.35;;;18.60;91.10;;;;;;5122981;27;20045;-88
2021/07/20 06:03:19;;;;;;;7.85;4.47;;;18.60;91.20;;;;;;5121124;28;20042;-86
2021/07/20 06:05:48;;;;;;;9.00;4.00;;;18.60;91.30;;;;;;5118614;28;20047;-86
2021/07/20 06:08:15;;;;;;;11.57;4.22;;;18.70;90.90;;;;;;5131726;27;20047;-87
2021/07/20 06:10:42;;;;;;;7.93;4.03;;;18.70;90.90;;;;;;5122319;27;20084;-87
2021/07/20 06:13:10;;;;;;;6.63;4.03;;;18.80;90.90;;;;;;5123706;27;20054;-87
2021/07/20 06:15:38;;;;;;;5.93;3.30;;;18.80;90.20;;;;;;5133892;27;20094;-86
2021/07/20 06:18:04;;;;;;;8.82;3.63;;;18.80;91.10;;;;;;5120660;27;20039;-87
2021/07/20 06:20:30;;;;;;;7.28;3.67;;;18.80;90.30;;;;;;5124724;27;20031;-87
2021/07/20 06:22:58;;;;;;;6.28;3.38;;;18.80;90.20;;;;;;5123544;27;20044;-86
2021/07/20 06:25:24;;;;;;;5.88;3.63;;;18.90;90.30;;;;;;5121882;27;20066;-85
2021/07/20 06:27:51;;;;;;;5.45;3.42;;;18.90;90.30;;;;;;5119825;28;20356;-86
2021/07/20 06:30:18;;;;;;;5.90;3.78;;;19.00;89.90;;;;;;5130148;27;20030;-86
2021/07/20 06:32:44;;;;;;;8.02;3.25;;;19.10;90.20;;;;;;5142450;27;20126;-87
2021/07/20 06:35:14;;;;;;;5.85;2.55;;;19.10;89.80;;;;;;5121581;27;20118;-86
2021/07/20 06:37:42;;;;;;;11.82;4.18;;;19.20;88.70;;;;;;5140447;27;20121;-84
2021/07/20 06:40:12;;;;;;;8.82;3.25;;;19.30;88.90;;;;;;5121767;27;20130;-85
2021/07/20 06:42:39;;;;;;;8.18;4.20;;;19.40;88.80;;;;;;5122836;27;20043;-87
2021/07/20 06:45:05;;;;;;;6.78;3.13;;;19.40;87.60;;;;;;5117682;28;20031;-87
2021/07/20 06:47:34;;;;;;;5.32;3.15;;;19.50;87.60;;;;;;5118659;28;20065;-88
2021/07/20 06:50:04;;;;;;;6.57;3.25;;;19.40;86.80;;;;;;5125603;27;20031;-88
2021/07/20 06:52:30;;;;;;;4.30;2.78;;;19.50;86.90;;;;;;5133649;28;20072;-86
2021/07/20 06:54:55;;;;;;;7.28;2.58;;;19.50;88.50;;;;;;5126003;27;20130;-87
2021/07/20 06:57:22;;;;;;;5.20;2.95;;;19.60;87.10;;;;;;5118610;27;20122;-88
2021/07/20 06:59:49;;;;;;;4.35;2.78;;;19.70;87.60;;;;;;5147964;27;20027;-85
2021/07/20 07:02:22;;;;;;;4.45;3.10;;;19.80;88.80;;;;;;5138583;27;20091;-87
2021/07/20 07:04:48;;;;;;;5.00;2.67;;;19.90;86.30;;;;;;5134904;27;20048;-86
2021/07/20 07:07:15;;;;;;;4.80;2.85;;;20.10;86.10;;;;;;5145057;27;20035;-86
2021/07/20 07:09:41;;;;;;;5.43;2.40;;;20.20;86.50;;;;;;5138197;27;20149;-86
2021/07/20 07:12:08;;;;;;;4.80;3.03;;;20.20;85.30;;;;;;5121111;27;20157;-85
2021/07/20 07:14:35;;;;;;;4.03;2.83;;;20.30;85.40;;;;;;5122875;27;20058;-87
2021/07/20 07:17:03;;;;;;;8.02;3.22;;;20.40;87.60;;;;;;5138571;27;20374;-86
2021/07/20 07:19:28;;;;;;;4.72;2.50;;;20.60;87.00;;;;;;5138830;27;20259;-87
2021/07/20 07:21:54;;;;;;;7.20;3.60;;;20.70;86.60;;;;;;5121243;27;20050;-85
2021/07/20 07:24:21;;;;;;;4.63;3.10;;;20.80;84.90;;;;;;5138473;27;20027;-87
2021/07/20 07:26:49;;;;;;;6.55;3.33;;;20.90;85.00;;;;;;5120002;27;20092;-87
2021/07/20 07:29:17;;;;;;;4.60;2.85;;;20.90;84.70;;;;;;5120631;27;20042;-86
2021/07/20 07:31:44;;;;;;;8.38;2.88;;;21.00;83.70;;;;;;5139187;27;20424;-86
2021/07/20 07:34:11;;;;;;;5.38;3.15;;;21.00;85.20;;;;;;5120749;27;20031;-85
2021/07/20 07:36:37;;;;;;;4.68;2.95;;;20.90;84.50;;;;;;5120897;27;20039;-84
2021/07/20 07:39:05;;;;;;;9.93;3.35;;;20.80;84.40;;;;;;5131786;27;20047;-86
2021/07/20 07:41:34;;;;;;;5.75;2.72;;;20.70;84.80;;;;;;5125067;27;20027;-85
2021/07/20 07:44:01;;;;;;;7.85;2.72;;;20.60;85.40;;;;;;5140026;27;20111;-85
2021/07/20 07:46:32;;;;;;;5.28;3.22;;;20.50;85.50;;;;;;5137949;27;20064;-86
2021/07/20 07:48:59;;;;;;;8.32;3.70;;;20.50;87.00;;;;;;5120841;27;20552;-87
2021/07/20 07:51:25;;;;;;;4.70;2.85;;;20.50;87.00;;;;;;5138146;27;20031;-86
2021/07/20 07:53:53;;;;;;;4.93;3.00;;;20.60;85.90;;;;;;5120296;27;20458;-86
2021/07/20 07:56:19;;;;;;;5.28;3.00;;;20.70;85.10;;;;;;5139299;27;20107;-85
2021/07/20 07:58:45;;;;;;;6.80;3.03;;;20.70;84.30;;;;;;5121268;27;20049;-85
2021/07/20 08:01:13;;;;;;;3.38;2.45;;;20.70;83.30;;;;;;5120858;27;20047;-85
2021/07/20 08:03:43;;;;;;;7.03;2.95;;;20.70;83.00;;;;;;5115640;27;20450;-84
2021/07/20 08:06:09;;;;;;;6.30;2.75;;;20.70;84.20;;;;;;5122684;27;20047;-85
2021/07/20 08:08:37;;;;;;;5.45;2.47;;;20.60;83.40;;;;;;5124449;27;20042;-87
2021/07/20 08:11:10;;;;;;;3.08;1.80;;;20.60;82.20;;;;;;5126872;27;20130;-86
2021/07/20 08:13:38;;;;;;;4.80;2.10;;;20.60;81.90;;;;;;5120723;27;20035;-88
2021/07/20 08:16:05;;;;;;;5.28;2.65;;;20.50;83.60;;;;;;5119383;27;20047;-85
2021/07/20 08:18:31;;;;;;;3.28;1.98;;;20.40;82.20;;;;;;5119430;27;20314;-86
2021/07/20 08:21:05;;;;;;;9.13;2.45;;;20.40;81.90;;;;;;5122084;27;20039;-85
2021/07/20 08:23:31;;;;;;;4.95;1.75;;;20.40;79.90;;;;;;5139425;27;20039;-85
2021/07/20 08:26:03;;;;;;;5.43;2.10;;;20.40;82.20;;;;;;5138867;27;20050;-88
2021/07/20 08:28:41;;;;;;;4.50;1.90;;;20.40;81.10;;;;;;5138961;27;20027;-85
2021/07/20 08:31:08;;;;;;;4.15;1.80;;;20.50;80.20;;;;;;5118886;27;20088;-86
2021/07/20 08:33:37;;;;;;;5.45;2.53;;;20.50;79.90;;;;;;5115771;28;20475;-86
2021/07/20 08:36:08;;;;;;;4.75;2.08;;;20.60;79.80;;;;;;5116119;28;20086;-85
2021/07/20 08:38:35;;;;;;;4.90;2.65;;;20.70;77.30;;;;;;5121126;27;20306;-85
2021/07/20 08:41:04;;;;;;;4.20;2.47;;;20.80;78.60;;;;;;5121217;27;20030;-86
2021/07/20 08:44:02;;;;;;;4.40;2.63;;;20.90;79.10;;;;;;5120265;27;20062;-86
2021/07/20 08:46:49;;;;;;;3.42;1.80;;;21.00;78.40;;;;;;5120062;27;20074;-85
2021/07/20 08:49:40;;;;;;;4.57;2.30;;;21.00;78.60;;;;;;5137096;27;20415;-86
2021/07/20 08:52:17;;;;;;;3.65;2.08;;;21.20;80.80;;;;;;5130295;27;20046;-87
2021/07/20 08:54:55;;;;;;;8.43;2.60;;;21.30;80.40;;;;;;5116785;28;20043;-87
2021/07/20 08:57:32;;;;;;;4.13;2.40;;;21.50;79.30;;;;;;5119723;28;20038;-87
2021/07/20 09:00:14;;;;;;;4.38;2.03;;;21.70;76.70;;;;;;5120798;27;20418;-85
2021/07/20 09:03:08;;;;;;;2.63;2.30;;;21.80;79.00;;;;;;5131113;27;20031;-87
2021/07/20 09:05:43;;;;;;;3.35;2.35;;;21.80;78.80;;;;;;5117561;27;20313;-87
2021/07/20 09:08:24;;;;;;;4.38;2.35;;;21.90;77.60;;;;;;5127355;27;20047;-87
2021/07/20 09:11:11;;;;;;;5.18;2.78;;;22.00;76.30;;;;;;5116585;27;20039;-87
2021/07/20 09:13:40;;;;;;;5.07;2.85;;;22.00;79.50;;;;;;5133250;27;20039;-87
2021/07/20 09:16:11;;;;;;;5.60;2.40;;;22.00;76.40;;;;;;5126609;27;20035;-87
2021/07/20 09:18:46;;;;;;;4.05;2.45;;;22.10;77.80;;;;;;5118527;28;20050;-86
2021/07/20 09:21:14;;;;;;;3.72;2.33;;;22.10;76.00;;;;;;5114935;28;20118;-87
2021/07/20 09:23:48;;;;;;;5.97;2.33;;;22.10;76.20;;;;;;5116720;28;20047;-87
2021/07/20 09:26:23;;;;;;;4.30;2.58;;;22.10;77.10;;;;;;5119001;27;20039;-85
2021/07/20 09:28:55;;;;;;;5.53;2.13;;;22.20;73.70;;;;;;5118674;28;20103;-86
2021/07/20 09:31:46;;;;;;;5.18;2.15;;;22.30;75.30;;;;;;5128398;27;20043;-85
2021/07/20 09:34:48;;;;;;;6.63;2.83;;;22.40;73.50;;;;;;5125943;27;20496;-85
2021/07/20 09:37:27;;;;;;;3.85;2.30;;;22.40;72.50;;;;;;5125612;27;20614;-85
2021/07/20 09:40:06;;;;;;;6.47;3.05;;;22.40;72.90;;;;;;5124557;27;20050;-85
2021/07/20 09:42:43;;;;;;;4.32;1.85;;;22.40;73.30;;;;;;5131857;27;20376;-87
2021/07/20 09:45:13;;;;;;;4.18;2.40;;;22.50;73.20;;;;;;5129759;27;20031;-86
2021/07/20 09:48:22;;;;;;;3.42;2.22;;;22.60;74.00;;;;;;5124777;27;20034;-86
2021/07/20 09:51:10;;;;;;;3.30;2.20;;;22.60;72.30;;;;;;5130790;28;20016;-87
2021/07/20 09:54:04;;;;;;;4.68;2.63;;;22.50;73.40;;;;;;5119760;28;20031;-87
2021/07/20 09:56:54;;;;;;;7.05;2.90;;;22.40;71.60;;;;;;5106405;28;20126;-85
2021/07/20 09:59:43;;;;;;;3.88;2.35;;;22.20;73.00;;;;;;5112227;28;20031;-85
2021/07/20 10:02:37;;;;;;;4.05;2.95;;;22.10;74.40;;;;;;5141545;28;20042;-85
2021/07/20 10:05:12;;;;;;;4.18;2.35;;;22.20;75.30;;;;;;5138361;28;20040;-85
2021/07/20 10:07:56;;;;;;;4.78;2.30;;;22.20;72.10;;;;;;5117700;28;20103;-86
2021/07/20 10:10:33;;;;;;;7.20;2.25;;;22.20;72.10;;;;;;5126103;28;20039;-86
2021/07/20 10:13:25;;;;;;;3.92;2.80;;;22.30;73.90;;;;;;5123247;28;20055;-86
2021/07/20 10:16:02;;;;;;;2.80;2.00;;;22.40;70.50;;;;;;5123913;28;20096;-89
2021/07/20 10:18:50;;;;;;;3.30;2.05;;;22.30;70.40;;;;;;5123690;28;20294;-86
2021/07/20 10:21:20;;;;;;;4.45;2.90;;;22.40;72.10;;;;;;5123112;27;20123;-89
2021/07/20 10:23:59;;;;;;;7.20;2.88;;;22.40;71.90;;;;;;5118666;27;20031;-84
2021/07/20 10:26:31;;;;;;;4.28;2.72;;;22.40;71.00;;;;;;5141785;27;20042;-84
2021/07/20 10:29:15;;;;;;;3.47;2.08;;;22.50;74.30;;;;;;5143495;27;20043;-93
2021/07/20 10:32:03;;;;;;;5.28;2.72;;;22.60;69.90;;;;;;5128085;27;20066;-87
2021/07/20 10:34:29;;;;;;;4.43;2.63;;;22.60;72.80;;;;;;5125985;27;20038;-87
2021/07/20 10:37:06;;;;;;;7.28;3.75;;;22.80;68.90;;;;;;5144569;27;20038;-91
2021/07/20 10:39:39;;;;;;;5.38;2.47;;;23.00;71.00;;;;;;5125744;27;20054;-88
2021/07/20 10:42:21;;;;;;;4.03;2.47;;;23.20;70.00;;;;;;5140530;27;20026;-93
2021/07/20 10:45:02;;;;;;;4.97;2.90;;;23.30;69.40;;;;;;5141664;27;20035;-87
2021/07/20 10:47:38;;;;;;;4.75;2.40;;;23.40;69.80;;;;;;5123180;27;20099;-87
2021/07/20 10:50:10;;;;;;;7.10;3.42;;;23.20;69.20;;;;;;5122905;27;20039;-88
2021/07/20 10:53:08;;;;;;;4.07;1.98;;;23.20;69.00;;;;;;5142212;27;20414;-87
2021/07/20 10:55:56;;;;;;;5.63;2.65;;;23.00;69.20;;;;;;5126476;27;20039;-91
2021/07/20 10:58:45;;;;;;;4.63;2.25;;;23.00;69.50;;;;;;5106143;28;20043;-88
2021/07/20 11:01:20;;;;;;;3.90;2.08;;;23.00;69.10;;;;;;5106701;28;20310;-88
2021/07/20 11:03:58;;;;;;;4.60;2.50;;;23.20;67.30;;;;;;5125483;27;20410;-89
2021/07/20 11:06:23;;;;;;;9.05;2.95;;;23.20;66.90;;;;;;5113237;27;20049;-88
2021/07/20 11:08:57;;;;;;;7.40;2.90;;;23.30;68.70;;;;;;5124704;27;20035;-90
2021/07/20 11:11:34;;;;;;;6.00;2.70;;;23.30;69.00;;;;;;5145438;27;20138;-90
2021/07/20 11:14:01;;;;;;;4.75;2.42;;;23.50;67.60;;;;;;5143083;27;20459;-87
2021/07/20 11:16:30;;;;;;;4.93;2.60;;;23.60;66.80;;;;;;5134606;27;20034;-87
2021/07/20 11:18:56;;;;;;;4.57;2.80;;;23.50;67.80;;;;;;5126261;27;20043;-87
2021/07/20 11:21:26;;;;;;;3.33;2.58;;;23.40;68.40;;;;;;5129501;27;20039;-87
2021/07/20 11:23:53;;;;;;;3.55;2.00;;;23.40;67.20;;;;;;5118858;28;20287;-88
2021/07/20 11:26:21;;;;;;;6.03;2.47;;;23.30;66.30;;;;;;5119499;28;20031;-87
2021/07/20 11:28:47;;;;;;;4.10;2.28;;;23.10;66.90;;;;;;5118946;28;20677;-89
2021/07/20 11:31:17;;;;;;;4.53;2.75;;;23.00;68.10;;;;;;5139663;27;20034;-88
2021/07/20 11:33:47;;;;;;;5.28;2.17;;;23.00;67.20;;;;;;5139644;27;20039;-90
2021/07/20 11:36:19;;;;;;;4.05;2.20;;;23.00;67.00;;;;;;5121356;27;20690;-88
2021/07/20 11:38:46;;;;;;;5.10;2.80;;;23.10;67.20;;;;;;5135569;27;20184;-87
2021/07/20 11:41:25;;;;;;;4.18;2.45;;;23.00;69.70;;;;;;5138968;27;20598;-88
2021/07/20 11:43:52;;;;;;;5.20;2.33;;;23.10;68.70;;;;;;5140442;27;20046;-90
2021/07/20 11:46:24;;;;;;;3.50;2.50;;;23.10;68.20;;;;;;5141412;27;20042;-90
2021/07/20 11:48:55;;;;;;;5.22;2.00;;;22.90;67.30;;;;;;5127173;27;20028;-89
2021/07/20 11:51:32;;;;;;;3.45;2.38;;;22.80;67.50;;;;;;5129966;27;20047;-89
2021/07/20 11:54:18;;;;;;;4.60;2.00;;;22.80;69.50;;;;;;5124707;27;20309;-89
2021/07/20 11:57:03;;;;;;;3.10;2.40;;;22.80;66.30;;;;;;5139007;27;20047;-89
2021/07/20 12:00:06;;;;;;;6.88;2.42;;;22.80;71.40;;;;;;5105093;28;20066;-89
2021/07/20 12:03:02;;;;;;;6.97;2.90;;;23.00;66.30;;;;;;5118999;28;20068;-89
2021/07/20 12:05:46;;;;;;;4.57;2.42;;;23.10;67.10;;;;;;5101362;28;20051;-90
2021/07/20 12:08:37;;;;;;;3.72;2.15;;;23.30;66.80;;;;;;5118933;28;20039;-89
2021/07/20 12:11:25;;;;;;;3.40;2.67;;;23.30;68.70;;;;;;5119070;27;20035;-89
2021/07/20 12:13:51;;;;;;;3.63;2.65;;;23.30;66.40;;;;;;5118894;27;20129;-88
2021/07/20 12:16:17;;;;;;;5.25;2.50;;;23.30;65.90;;;;;;5123463;27;20101;-89
2021/07/20 12:18:54;;;;;;;7.25;3.08;;;23.20;68.20;;;;;;5128128;27;20121;-89
2021/07/20 12:21:25;;;;;;;5.13;2.85;;;23.20;67.80;;;;;;5132805;27;20070;-89
2021/07/20 12:23:57;;;;;;;3.42;2.15;;;23.40;67.70;;;;;;5126156;28;20064;-89
2021/07/20 12:26:24;;;;;;;;;;;23.50;66.50;;;;;;5130434;27;20042;-90
2021/07/20 12:28:49;;;;;;;5.78;1.63;;;23.50;66.00;;;;;;5123958;27;19918;-90
2021/07/20 12:31:18;;;;;;;3.47;2.20;;;23.50;65.30;;;;;;5140171;27;20027;-89
2021/07/20 12:33:45;;;;;;;6.55;2.30;;;23.60;65.50;;;;;;5139845;27;20058;-89
2021/07/20 12:36:12;;;;;;;4.30;2.08;;;23.70;68.00;;;;;;5122101;27;20046;-90
2021/07/20 12:38:38;;;;;;;3.50;2.20;;;23.80;65.20;;;;;;5122211;27;20528;-91
2021/07/20 12:41:13;;;;;;;4.32;1.95;;;24.10;64.00;;;;;;5123382;27;20039;-89
2021/07/20 12:43:41;;;;;;;3.33;1.70;;;24.20;66.70;;;;;;5139463;27;20057;-88
2021/07/20 12:46:26;;;;;;;9.15;2.40;;;24.40;64.30;;;;;;5147526;27;20056;-93
2021/07/20 12:48:53;;;;;;;4.13;2.15;;;24.50;65.30;;;;;;5138899;27;20056;-91
2021/07/20 12:51:21;;;;;;;3.20;1.80;;;24.70;61.70;;;;;;5144799;27;20087;-88
2021/07/20 12:53:53;;;;;;;4.40;2.58;;;24.60;62.50;;;;;;5118522;28;20367;-90
2021/07/20 12:56:23;;;;;;;6.45;2.13;;;24.70;65.20;;;;;;5128803;27;20433;-90
2021/07/20 12:58:53;;;;;;;4.15;2.67;;;24.90;62.60;;;;;;5153485;27;20107;-91
2021/07/20 13:01:22;;;;;;;4.78;1.83;;;25.00;62.50;;;;;;5121419;28;20055;-91
2021/07/20 13:03:48;;;;;;;5.05;2.42;;;25.20;62.50;;;;;;5119164;28;20038;-92
2021/07/20 13:06:19;;;;;;;4.57;2.13;;;25.20;61.50;;;;;;5112473;28;20043;-93
2021/07/20 13:08:47;;;;;;;4.45;2.63;;;25.20;61.90;;;;;;5106038;28;20036;-90